createdAt,value
2022-12-23T00:02:23.414Z,7.18
2022-12-23T00:05:08.656Z,7.15
2022-12-23T00:07:53.462Z,7.19
2022-12-23T00:10:38.153Z,7.20
2022-12-23T00:13:23.114Z,7.33
2022-12-23T00:16:07.851Z,7.34
2022-12-23T00:18:52.727Z,7.37
2022-12-23T00:21:37.505Z,7.21
2022-12-23T00:24:22.383Z,7.10
2022-12-23T00:27:07.085Z,7.14
2022-12-23T00:29:51.909Z,7.15
2022-12-23T00:32:36.712Z,7.08
2022-12-23T00:35:21.498Z,7.17
2022-12-23T00:38:06.279Z,7.22
2022-12-23T00:40:50.978Z,7.25
2022-12-23T00:43:35.823Z,7.35
2022-12-23T00:46:20.611Z,7.43
2022-12-23T00:49:05.391Z,7.58
2022-12-23T00:51:50.267Z,7.66
2022-12-23T00:54:35.097Z,7.76
2022-12-23T00:57:19.856Z,7.67
2022-12-23T01:00:04.557Z,7.49
2022-12-23T01:02:49.557Z,7.63
2022-12-23T01:05:34.663Z,7.55
2022-12-23T01:08:19.437Z,7.67
2022-12-23T01:11:04.137Z,7.73
2022-12-23T01:13:48.742Z,7.69
2022-12-23T01:16:33.432Z,7.67
2022-12-23T01:19:18.255Z,7.69
2022-12-23T01:22:02.954Z,7.71
2022-12-23T01:24:47.780Z,7.70
2022-12-23T01:27:32.529Z,7.72
2022-12-23T01:30:17.215Z,7.75
2022-12-23T01:33:02.101Z,7.73
2022-12-23T01:35:46.825Z,7.75
2022-12-23T01:38:31.454Z,7.76
2022-12-23T01:41:16.185Z,7.71
2022-12-23T01:44:01.044Z,7.51
2022-12-23T01:46:45.755Z,7.42
2022-12-23T01:49:30.629Z,7.32
2022-12-23T01:52:15.362Z,7.20
2022-12-23T01:55:00.198Z,7.20
2022-12-23T01:57:44.996Z,7.15
2022-12-23T02:00:29.773Z,7.04
2022-12-23T02:03:14.692Z,7.03
2022-12-23T02:05:59.778Z,7.08
2022-12-23T02:08:44.466Z,7.11
2022-12-23T02:11:29.120Z,7.24
2022-12-23T02:14:13.976Z,7.29
2022-12-23T02:16:58.753Z,7.00
2022-12-23T02:19:44.137Z,6.79
2022-12-23T02:22:28.942Z,6.68
2022-12-23T02:25:13.744Z,6.67
2022-12-23T02:27:58.508Z,6.79
2022-12-23T02:30:43.282Z,6.86
2022-12-23T02:33:27.968Z,6.97
2022-12-23T02:36:12.599Z,7.16
2022-12-23T02:38:57.581Z,7.28
2022-12-23T02:41:42.153Z,7.43
2022-12-23T02:44:26.854Z,7.57
2022-12-23T02:47:11.593Z,7.62
2022-12-23T02:49:56.364Z,7.62
2022-12-23T02:52:41.063Z,7.63
2022-12-23T02:55:25.868Z,7.67
2022-12-23T02:58:10.666Z,7.72
2022-12-23T03:00:55.300Z,7.79
2022-12-23T03:03:40.157Z,7.88
2022-12-23T03:06:25.217Z,7.98
2022-12-23T03:09:09.928Z,8.07
2022-12-23T03:11:54.598Z,8.05
2022-12-23T03:14:39.865Z,8.12
2022-12-23T03:17:24.653Z,8.11
2022-12-23T03:20:09.474Z,8.11
2022-12-23T03:22:54.176Z,8.08
2022-12-23T03:25:38.835Z,8.08
2022-12-23T03:28:23.611Z,8.16
2022-12-23T03:31:08.350Z,8.24
2022-12-23T03:33:53.166Z,8.31
2022-12-23T03:36:37.876Z,8.40
2022-12-23T03:39:22.649Z,8.41
2022-12-23T03:42:07.278Z,8.41
2022-12-23T03:45:27.820Z,8.29
2022-12-23T03:47:56.985Z,8.22
2022-12-23T03:50:41.746Z,8.16
2022-12-23T03:53:26.631Z,8.04
2022-12-23T03:56:11.269Z,7.85
2022-12-23T03:58:56.052Z,7.92
2022-12-23T04:01:40.817Z,7.94
2022-12-23T04:04:25.965Z,7.90
2022-12-23T04:07:10.762Z,7.99
2022-12-23T04:09:55.532Z,7.99
2022-12-23T04:12:40.284Z,7.99
2022-12-23T04:15:24.874Z,7.96
2022-12-23T04:18:09.688Z,7.89
2022-12-23T04:20:54.419Z,7.88
2022-12-23T04:23:39.363Z,7.94
2022-12-23T04:26:24.117Z,7.92
2022-12-23T04:29:08.851Z,8.03
2022-12-23T04:31:53.706Z,8.13
2022-12-23T04:34:38.952Z,8.22
2022-12-23T04:37:23.719Z,8.27
2022-12-23T04:40:08.517Z,8.29
2022-12-23T04:42:53.400Z,8.39
2022-12-23T04:45:38.167Z,8.43
2022-12-23T04:48:22.855Z,8.55
2022-12-23T04:51:07.583Z,8.54
2022-12-23T04:53:52.290Z,8.51
2022-12-23T04:56:36.981Z,8.61
2022-12-23T04:59:21.824Z,8.58
2022-12-23T05:02:06.748Z,8.65
2022-12-23T05:04:51.807Z,8.71
2022-12-23T05:07:36.586Z,8.75
2022-12-23T05:10:21.291Z,8.70
2022-12-23T05:13:06.108Z,8.60
2022-12-23T05:15:50.931Z,8.49
2022-12-23T05:18:35.740Z,8.38
2022-12-23T05:21:20.578Z,8.27
2022-12-23T05:24:05.277Z,8.23
2022-12-23T05:26:55.671Z,8.30
2022-12-23T05:29:44.381Z,8.40
2022-12-23T05:32:29.088Z,8.41
2022-12-23T05:35:13.915Z,8.39
2022-12-23T05:37:58.637Z,8.38
2022-12-23T05:40:43.448Z,8.27
2022-12-23T05:43:28.652Z,8.35
2022-12-23T05:46:13.610Z,8.46
2022-12-23T05:48:58.714Z,8.56
2022-12-23T05:51:43.606Z,8.52
2022-12-23T05:54:28.260Z,8.47
2022-12-23T05:57:13.050Z,8.40
2022-12-23T05:59:57.739Z,8.38
2022-12-23T06:02:45.097Z,8.43
2022-12-23T06:05:32.354Z,8.54
2022-12-23T06:08:17.173Z,8.56
2022-12-23T06:11:01.860Z,8.56
2022-12-23T06:13:46.799Z,8.65
2022-12-23T06:16:31.721Z,8.72
2022-12-23T06:19:16.557Z,8.80
2022-12-23T06:22:01.240Z,8.82
2022-12-23T06:24:46.028Z,8.79
2022-12-23T06:27:30.640Z,8.73
2022-12-23T06:30:15.477Z,8.68
2022-12-23T06:33:00.189Z,8.68
2022-12-23T06:35:44.956Z,8.66
2022-12-23T06:38:29.739Z,8.70
2022-12-23T06:41:14.550Z,8.69
2022-12-23T06:43:59.353Z,8.67
2022-12-23T06:46:44.015Z,8.64
2022-12-23T06:49:28.811Z,8.57
2022-12-23T06:52:13.603Z,8.58
2022-12-23T06:54:58.362Z,8.65
2022-12-23T06:57:43.083Z,8.76
2022-12-23T07:00:27.902Z,8.84
2022-12-23T07:03:12.801Z,8.89
2022-12-23T07:05:57.984Z,8.90
2022-12-23T07:08:42.833Z,8.93
2022-12-23T07:11:27.570Z,8.96
2022-12-23T07:14:12.346Z,8.99
2022-12-23T07:16:57.032Z,8.97
2022-12-23T07:19:41.750Z,8.90
2022-12-23T07:22:26.394Z,8.89
2022-12-23T07:25:11.168Z,8.96
2022-12-23T07:27:55.840Z,9.05
2022-12-23T07:30:40.599Z,9.08
2022-12-23T07:33:25.489Z,9.15
2022-12-23T07:36:10.275Z,9.26
2022-12-23T07:38:54.960Z,9.25
2022-12-23T07:41:39.593Z,9.25
2022-12-23T07:44:24.480Z,9.24
2022-12-23T07:47:09.211Z,8.97
2022-12-23T07:49:54.003Z,8.80
2022-12-23T07:52:38.717Z,8.74
2022-12-23T07:55:23.480Z,8.68
2022-12-23T07:58:08.223Z,8.66
2022-12-23T08:00:52.889Z,8.72
2022-12-23T08:03:37.768Z,8.75
2022-12-23T08:06:22.875Z,8.77
2022-12-23T08:09:07.618Z,8.87
2022-12-23T08:11:52.523Z,8.94
2022-12-23T08:14:37.281Z,8.99
2022-12-23T08:17:22.043Z,9.04
2022-12-23T08:20:07.272Z,9.13
2022-12-23T08:22:51.922Z,9.11
2022-12-23T08:25:36.762Z,9.09
2022-12-23T08:28:21.419Z,9.08
2022-12-23T08:31:06.418Z,9.04
2022-12-23T08:33:51.584Z,8.98
2022-12-23T08:36:36.358Z,8.85
2022-12-23T08:39:21.099Z,8.83
2022-12-23T08:42:05.683Z,8.86
2022-12-23T08:44:50.500Z,8.87
2022-12-23T08:47:35.127Z,9.00
2022-12-23T08:50:19.981Z,9.07
2022-12-23T08:53:04.551Z,9.08
2022-12-23T08:55:49.321Z,9.02
2022-12-23T08:58:33.877Z,9.06
2022-12-23T09:01:18.787Z,9.18
2022-12-23T09:04:03.591Z,9.33
2022-12-23T09:06:48.350Z,9.37
2022-12-23T09:09:33.372Z,9.38
2022-12-23T09:12:18.016Z,9.43
2022-12-23T09:15:02.882Z,9.45
2022-12-23T09:17:47.510Z,9.48
2022-12-23T09:20:32.373Z,9.45
2022-12-23T09:23:17.018Z,9.38
2022-12-23T09:26:01.877Z,9.35
2022-12-23T09:28:46.613Z,9.37
2022-12-23T09:31:36.804Z,9.37
2022-12-23T09:34:22.763Z,9.38
2022-12-23T09:37:07.460Z,9.46
2022-12-23T09:39:52.491Z,9.47
2022-12-23T09:42:37.644Z,9.51
2022-12-23T09:45:22.290Z,9.51
2022-12-23T09:48:07.189Z,9.49
2022-12-23T09:50:51.874Z,9.45
2022-12-23T09:53:36.562Z,9.48
2022-12-23T09:56:21.173Z,9.53
2022-12-23T09:59:06.105Z,9.61
2022-12-23T10:01:50.934Z,9.56
2022-12-23T10:04:36.192Z,9.55
2022-12-23T10:07:20.945Z,9.60
2022-12-23T10:10:05.676Z,9.58
2022-12-23T10:12:50.535Z,9.53
2022-12-23T10:15:35.268Z,9.44
2022-12-23T10:18:20.078Z,9.43
2022-12-23T10:21:04.894Z,9.45
2022-12-23T10:23:49.703Z,9.51
2022-12-23T10:26:34.487Z,9.57
2022-12-23T10:29:19.793Z,9.56
2022-12-23T10:32:05.235Z,9.62
2022-12-23T10:34:50.456Z,9.67
2022-12-23T10:37:35.346Z,9.63
2022-12-23T10:40:20.029Z,9.69
2022-12-23T10:43:04.763Z,9.75
2022-12-23T10:45:49.353Z,9.76
2022-12-23T10:48:34.123Z,9.73
2022-12-23T10:51:18.857Z,9.79
2022-12-23T10:54:03.640Z,9.89
2022-12-23T10:56:48.308Z,10.00
2022-12-23T10:59:33.089Z,10.04
2022-12-23T11:02:18.047Z,10.03
2022-12-23T11:05:03.133Z,9.95
2022-12-23T11:07:47.951Z,9.88
2022-12-23T11:10:32.677Z,9.82
2022-12-23T11:13:17.485Z,9.74
2022-12-23T11:16:02.091Z,9.75
2022-12-23T11:18:46.861Z,9.77
2022-12-23T11:21:31.589Z,9.82
2022-12-23T11:24:16.492Z,9.93
2022-12-23T11:27:01.184Z,9.96
2022-12-23T11:29:45.900Z,9.84
2022-12-23T11:32:30.778Z,9.72
2022-12-23T11:35:15.520Z,9.69
2022-12-23T11:38:00.189Z,9.60
2022-12-23T11:40:44.923Z,9.54
2022-12-23T11:43:29.656Z,9.59
2022-12-23T11:46:14.479Z,9.60
2022-12-23T11:48:59.808Z,9.57
2022-12-23T11:51:44.489Z,9.58
2022-12-23T11:54:29.243Z,9.60
2022-12-23T11:57:13.915Z,9.61
2022-12-23T11:59:59.140Z,9.56
2022-12-23T12:02:43.899Z,9.55
2022-12-23T12:05:28.612Z,9.53
2022-12-23T12:08:13.506Z,9.51
2022-12-23T12:10:58.243Z,9.62
2022-12-23T12:13:42.945Z,9.68
2022-12-23T12:16:27.692Z,9.67
2022-12-23T12:19:12.376Z,9.70
2022-12-23T12:21:57.001Z,9.73
2022-12-23T12:24:41.894Z,9.77
2022-12-23T12:27:26.713Z,9.84
2022-12-23T12:30:11.393Z,9.87
2022-12-23T12:32:56.356Z,9.88
2022-12-23T12:35:41.045Z,9.93
2022-12-23T12:38:25.852Z,9.98
2022-12-23T12:41:10.600Z,9.99
2022-12-23T12:43:55.420Z,9.93
2022-12-23T12:46:40.061Z,9.86
2022-12-23T12:49:24.827Z,9.89
2022-12-23T12:52:09.483Z,9.97
2022-12-23T12:54:54.441Z,9.96
2022-12-23T12:57:39.119Z,9.92
2022-12-23T13:00:24.050Z,9.85
2022-12-23T13:03:08.868Z,9.85
2022-12-23T13:05:54.643Z,9.82
2022-12-23T13:08:39.794Z,9.81
2022-12-23T13:11:28.345Z,9.83
2022-12-23T13:14:13.867Z,9.94
2022-12-23T13:16:58.693Z,9.86
2022-12-23T13:19:43.323Z,9.88
2022-12-23T13:22:28.209Z,9.82
2022-12-23T13:25:12.864Z,9.79
2022-12-23T13:27:57.619Z,9.85
2022-12-23T13:30:42.405Z,9.85
2022-12-23T13:33:27.111Z,9.90
2022-12-23T13:36:11.802Z,10.00
2022-12-23T13:38:56.341Z,10.00
2022-12-23T13:41:41.142Z,10.01
2022-12-23T13:44:26.271Z,9.99
2022-12-23T13:47:11.215Z,9.96
2022-12-23T13:49:56.062Z,10.01
2022-12-23T13:52:40.890Z,9.98
2022-12-23T13:55:26.012Z,10.02
2022-12-23T13:58:10.884Z,10.03
2022-12-23T14:00:55.668Z,10.00
2022-12-23T14:03:40.354Z,9.98
2022-12-23T14:06:25.211Z,9.91
2022-12-23T14:09:09.918Z,9.97
2022-12-23T14:11:56.277Z,9.89
2022-12-23T14:14:44.452Z,9.81
2022-12-23T14:17:29.157Z,9.77
2022-12-23T14:20:14.075Z,9.78
2022-12-23T14:22:58.842Z,9.75
2022-12-23T14:25:43.626Z,9.80
2022-12-23T14:28:28.224Z,9.81
2022-12-23T14:31:13.054Z,9.81
2022-12-23T14:33:57.646Z,9.78
2022-12-23T14:36:42.610Z,9.73
2022-12-23T14:39:27.754Z,9.80
2022-12-23T14:42:16.497Z,9.76
2022-12-23T14:45:01.846Z,9.73
2022-12-23T14:47:46.589Z,9.77
2022-12-23T14:50:31.453Z,9.76
2022-12-23T14:53:16.151Z,9.82
2022-12-23T14:56:00.970Z,9.80
2022-12-23T14:58:45.914Z,9.76
2022-12-23T15:01:30.762Z,9.76
2022-12-23T15:04:15.545Z,9.74
2022-12-23T15:07:00.302Z,9.74
2022-12-23T15:09:45.241Z,9.79
2022-12-23T15:12:29.940Z,9.80
2022-12-23T15:15:14.811Z,9.80
2022-12-23T15:17:59.398Z,9.83
2022-12-23T15:20:44.318Z,9.84
2022-12-23T15:23:29.105Z,9.86
2022-12-23T15:26:13.872Z,9.88
2022-12-23T15:28:58.581Z,9.89
2022-12-23T15:31:43.369Z,9.83
2022-12-23T15:34:28.176Z,9.84
2022-12-23T15:37:12.881Z,9.88
2022-12-23T15:40:06.172Z,9.82
2022-12-23T15:42:54.906Z,9.84
2022-12-23T15:45:39.739Z,9.89
2022-12-23T15:48:24.525Z,9.84
2022-12-23T15:51:09.531Z,9.84
2022-12-23T15:53:54.292Z,9.88
2022-12-23T15:56:39.056Z,9.80
2022-12-23T15:59:23.805Z,9.70
2022-12-23T16:02:32.166Z,9.68
2022-12-23T16:05:13.620Z,9.64
2022-12-23T16:07:58.250Z,9.68
2022-12-23T16:10:43.094Z,9.72
2022-12-23T16:13:27.854Z,9.72
2022-12-23T16:16:12.604Z,9.73
2022-12-23T16:18:57.325Z,9.73
2022-12-23T16:21:42.141Z,9.61
2022-12-23T16:24:26.951Z,9.51
2022-12-23T16:27:11.693Z,9.47
2022-12-23T16:29:56.477Z,9.45
2022-12-23T16:32:41.213Z,9.38
2022-12-23T16:35:26.554Z,9.46
2022-12-23T16:38:11.319Z,9.53
2022-12-23T16:40:56.177Z,9.54
2022-12-23T16:43:47.505Z,9.52
2022-12-23T16:46:36.905Z,9.56
2022-12-23T16:49:21.553Z,9.59
2022-12-23T16:52:06.356Z,9.60
2022-12-23T16:54:51.043Z,9.68
2022-12-23T16:57:35.939Z,9.72
2022-12-23T17:00:20.928Z,9.75
2022-12-23T17:03:05.688Z,9.77
2022-12-23T17:05:50.462Z,9.69
2022-12-23T17:08:35.315Z,9.69
2022-12-23T17:11:20.137Z,9.64
2022-12-23T17:14:09.125Z,9.60
2022-12-23T17:16:57.620Z,9.58
2022-12-23T17:19:43.162Z,9.62
2022-12-23T17:22:27.881Z,9.52
2022-12-23T17:25:12.647Z,9.55
2022-12-23T17:27:57.458Z,9.55
2022-12-23T17:30:42.245Z,9.60
2022-12-23T17:33:26.901Z,9.51
2022-12-23T17:36:11.819Z,9.55
2022-12-23T17:38:56.703Z,9.45
2022-12-23T17:41:41.444Z,9.23
2022-12-23T17:44:26.517Z,9.20
2022-12-23T17:47:11.329Z,9.23
2022-12-23T17:49:55.959Z,9.17
2022-12-23T17:52:40.750Z,9.16
2022-12-23T17:55:25.476Z,9.18
2022-12-23T17:58:10.222Z,9.20
2022-12-23T18:00:54.992Z,9.26
2022-12-23T18:03:39.818Z,9.25
2022-12-23T18:06:24.440Z,9.32
2022-12-23T18:09:09.447Z,9.24
2022-12-23T18:11:54.094Z,9.18
2022-12-23T18:14:38.957Z,9.12
2022-12-23T18:17:23.725Z,9.01
2022-12-23T18:20:08.490Z,8.95
2022-12-23T18:22:53.372Z,8.91
2022-12-23T18:25:38.064Z,8.87
2022-12-23T18:28:22.909Z,8.94
2022-12-23T18:31:07.670Z,9.10
2022-12-23T18:33:53.058Z,9.14
2022-12-23T18:36:37.892Z,9.15
2022-12-23T18:39:23.179Z,9.20
2022-12-23T18:42:07.887Z,9.16
2022-12-23T18:44:52.561Z,9.12
2022-12-23T18:47:37.814Z,9.14
2022-12-23T18:50:22.692Z,9.19
2022-12-23T18:53:07.482Z,9.16
2022-12-23T18:55:52.194Z,9.23
2022-12-23T18:58:36.938Z,9.28
2022-12-23T19:01:21.659Z,9.34
2022-12-23T19:04:06.428Z,9.40
2022-12-23T19:06:51.104Z,9.41
2022-12-23T19:09:35.984Z,9.34
2022-12-23T19:12:20.668Z,9.27
2022-12-23T19:15:05.493Z,9.19
2022-12-23T19:17:50.320Z,9.24
2022-12-23T19:20:35.076Z,9.30
2022-12-23T19:23:19.789Z,9.19
2022-12-23T19:26:04.517Z,9.19
2022-12-23T19:28:49.241Z,9.20
2022-12-23T19:31:34.298Z,9.33
2022-12-23T19:34:19.651Z,9.34
2022-12-23T19:37:04.511Z,9.38
2022-12-23T19:39:49.296Z,9.46
2022-12-23T19:42:34.055Z,9.48
2022-12-23T19:45:18.958Z,9.55
2022-12-23T19:48:04.365Z,9.63
2022-12-23T19:50:49.151Z,9.59
2022-12-23T19:53:33.883Z,9.57
2022-12-23T19:56:18.649Z,9.56
2022-12-23T19:59:03.469Z,9.65
2022-12-23T20:01:48.180Z,9.64
2022-12-23T20:04:33.427Z,9.68
2022-12-23T20:07:18.108Z,9.58
2022-12-23T20:10:02.877Z,9.49
2022-12-23T20:12:47.617Z,9.39
2022-12-23T20:15:32.461Z,9.25
2022-12-23T20:18:17.342Z,9.15
2022-12-23T20:21:02.423Z,9.10
2022-12-23T20:23:47.268Z,9.05
2022-12-23T20:26:31.997Z,9.09
2022-12-23T20:29:16.865Z,9.14
2022-12-23T20:32:01.637Z,9.22
2022-12-23T20:34:46.332Z,10.26
2022-12-23T20:37:31.015Z,10.31
2022-12-23T20:40:15.920Z,11.89
2022-12-23T20:43:00.590Z,13.06
2022-12-23T20:45:45.339Z,13.81
2022-12-23T20:48:33.969Z,14.47
2022-12-23T20:51:19.446Z,14.29
2022-12-23T20:54:04.244Z,13.24
2022-12-23T20:56:49.052Z,12.27
2022-12-23T20:59:34.007Z,11.65
2022-12-23T21:02:19.325Z,10.80
2022-12-23T21:05:04.606Z,10.27
2022-12-23T21:07:49.500Z,9.98
2022-12-23T21:10:34.228Z,9.75
2022-12-23T21:13:19.074Z,9.75
2022-12-23T21:16:03.877Z,10.04
2022-12-23T21:18:49.236Z,9.91
2022-12-23T21:21:33.974Z,9.79
2022-12-23T21:24:18.669Z,9.69
2022-12-23T21:27:03.542Z,9.55
2022-12-23T21:29:48.165Z,10.36
2022-12-23T21:32:32.961Z,12.42
2022-12-23T21:35:17.744Z,13.64
2022-12-23T21:38:02.616Z,13.61
2022-12-23T21:40:47.217Z,12.99
2022-12-23T21:43:31.985Z,12.17
2022-12-23T21:46:16.971Z,11.70
2022-12-23T21:49:02.125Z,12.08
2022-12-23T21:51:46.798Z,12.17
2022-12-23T21:54:31.517Z,13.14
2022-12-23T21:57:16.421Z,13.85
2022-12-23T22:00:01.125Z,13.40
2022-12-23T22:02:46.016Z,12.84
2022-12-23T22:05:30.601Z,12.20
2022-12-23T22:08:15.408Z,11.69
2022-12-23T22:11:00.066Z,11.41
2022-12-23T22:13:44.733Z,10.92
2022-12-23T22:16:29.685Z,10.25
2022-12-23T22:19:14.776Z,10.02
2022-12-23T22:21:59.570Z,9.69
2022-12-23T22:24:44.303Z,9.57
2022-12-23T22:27:29.153Z,9.62
2022-12-23T22:30:13.774Z,9.58
2022-12-23T22:32:58.494Z,9.58
2022-12-23T22:35:43.407Z,9.56
2022-12-23T22:38:28.433Z,9.48
2022-12-23T22:41:13.184Z,9.50
2022-12-23T22:43:57.869Z,9.49
2022-12-23T22:46:42.762Z,9.58
2022-12-23T22:49:27.878Z,9.68
2022-12-23T22:52:12.894Z,9.81
2022-12-23T22:54:57.698Z,9.94
2022-12-23T22:57:42.541Z,9.93
2022-12-23T23:00:27.125Z,9.96
2022-12-23T23:03:11.829Z,10.03
2022-12-23T23:05:56.624Z,10.05
2022-12-23T23:08:41.298Z,10.06
2022-12-23T23:11:26.026Z,10.06
2022-12-23T23:14:10.961Z,10.10
2022-12-23T23:16:55.744Z,10.10
2022-12-23T23:19:40.461Z,9.79
2022-12-23T23:22:25.590Z,9.57
2022-12-23T23:25:10.657Z,9.40
2022-12-23T23:27:55.522Z,9.39
2022-12-23T23:30:40.232Z,9.47
2022-12-23T23:33:25.023Z,9.55
2022-12-23T23:36:09.764Z,9.64
2022-12-23T23:38:54.746Z,9.66
2022-12-23T23:41:39.417Z,9.72
2022-12-23T23:44:24.179Z,9.74
2022-12-23T23:47:08.962Z,9.74
2022-12-23T23:49:53.688Z,9.73
2022-12-23T23:52:38.471Z,9.72
2022-12-23T23:55:23.238Z,9.73
2022-12-23T23:58:08.149Z,9.73
